createdAt,value
2023-12-11T00:00:27.826Z,53.48
2023-12-11T00:01:27.849Z,54.08
2023-12-11T00:02:27.848Z,52.49
2023-12-11T00:03:27.990Z,51.85
2023-12-11T00:04:27.941Z,53.43
2023-12-11T00:05:28.027Z,52.01
2023-12-11T00:06:28.076Z,52.61
2023-12-11T00:07:28.368Z,54.79
2023-12-11T00:08:28.147Z,53.81
2023-12-11T00:09:28.273Z,53.16
2023-12-11T00:10:28.298Z,53.83
2023-12-11T00:11:28.364Z,55.54
2023-12-11T00:12:28.496Z,52.84
2023-12-11T00:13:28.493Z,53.12
2023-12-11T00:14:28.545Z,55.53
2023-12-11T00:15:28.617Z,55.92
2023-12-11T00:16:28.679Z,55.49
2023-12-11T00:17:28.919Z,54.56
2023-12-11T00:18:28.961Z,54.43
2023-12-11T00:19:29.008Z,56.16
2023-12-11T00:20:28.937Z,51.54
2023-12-11T00:21:29.016Z,54.27
2023-12-11T00:22:29.053Z,55.45
2023-12-11T00:23:29.117Z,50.93
2023-12-11T00:24:29.212Z,54.43
2023-12-11T00:25:29.204Z,51.72
2023-12-11T00:26:29.272Z,53.49
2023-12-11T00:27:29.694Z,52.93
2023-12-11T00:28:29.399Z,53.17
2023-12-11T00:29:29.459Z,54.39
2023-12-11T00:30:29.559Z,54.55
2023-12-11T00:31:29.609Z,52.94
2023-12-11T00:32:29.670Z,54.79
2023-12-11T00:33:29.974Z,53.91
2023-12-11T00:34:29.909Z,51.74
2023-12-11T00:35:29.868Z,55.72
2023-12-11T00:36:29.992Z,52.30
2023-12-11T00:37:30.112Z,54.47
2023-12-11T00:38:30.074Z,52.75
2023-12-11T00:39:30.258Z,51.93
2023-12-11T00:40:30.215Z,52.13
2023-12-11T00:41:30.275Z,52.37
2023-12-11T00:42:30.365Z,55.38
2023-12-11T00:43:44.227Z,53.77
2023-12-11T00:44:31.425Z,53.92
2023-12-11T00:45:30.454Z,53.99
2023-12-11T00:46:30.440Z,53.45
2023-12-11T00:47:30.707Z,53.82
2023-12-11T00:48:30.520Z,54.67
2023-12-11T00:49:30.495Z,52.45
2023-12-11T00:50:30.445Z,52.59
2023-12-11T00:51:30.454Z,56.25
2023-12-11T00:52:30.459Z,54.10
2023-12-11T00:53:30.464Z,55.85
2023-12-11T00:54:30.572Z,52.99
2023-12-11T00:55:30.616Z,52.45
2023-12-11T00:56:30.681Z,53.45
2023-12-11T00:57:31.152Z,52.42
2023-12-11T00:58:30.824Z,54.37
2023-12-11T00:59:30.934Z,53.62
2023-12-11T01:00:31.058Z,54.79
2023-12-11T01:01:31.073Z,53.92
2023-12-11T01:02:31.083Z,54.71
2023-12-11T01:03:31.271Z,52.07
2023-12-11T01:04:32.147Z,53.60
2023-12-11T01:05:31.221Z,52.52
2023-12-11T01:06:31.284Z,53.29
2023-12-11T01:07:31.554Z,50.00
2023-12-11T01:08:31.341Z,56.01
2023-12-11T01:09:31.440Z,50.00
2023-12-11T01:10:31.420Z,55.04
2023-12-11T01:11:31.450Z,55.80
2023-12-11T01:12:31.494Z,52.19
2023-12-11T01:13:31.528Z,54.32
2023-12-11T01:14:31.595Z,57.52
2023-12-11T01:15:31.692Z,54.02
2023-12-11T01:16:31.745Z,54.11
2023-12-11T01:17:38.860Z,54.07
2023-12-11T01:18:32.968Z,54.19
2023-12-11T01:19:31.910Z,54.39
2023-12-11T01:20:31.829Z,54.16
2023-12-11T01:21:31.882Z,54.14
2023-12-11T01:22:31.834Z,51.74
2023-12-11T01:23:31.858Z,53.11
2023-12-11T01:24:32.606Z,55.47
2023-12-11T01:25:31.844Z,55.17
2023-12-11T01:26:31.905Z,55.93
2023-12-11T01:27:32.534Z,54.60
2023-12-11T01:28:32.029Z,56.74
2023-12-11T01:29:32.086Z,54.55
2023-12-11T01:30:32.154Z,54.83
2023-12-11T01:31:32.195Z,53.23
2023-12-11T01:32:32.276Z,53.61
2023-12-11T01:33:32.443Z,53.91
2023-12-11T01:34:32.476Z,52.20
2023-12-11T01:35:32.447Z,53.97
2023-12-11T01:36:32.562Z,54.76
2023-12-11T01:37:33.565Z,55.56
2023-12-11T01:38:32.654Z,53.72
2023-12-11T01:39:32.748Z,53.35
2023-12-11T01:40:32.768Z,52.85
2023-12-11T01:41:32.842Z,53.50
2023-12-11T01:42:32.931Z,53.11
2023-12-11T01:43:33.006Z,53.18
2023-12-11T01:44:33.059Z,53.68
2023-12-11T01:45:33.140Z,55.52
2023-12-11T01:46:33.159Z,51.99
2023-12-11T01:47:33.564Z,52.45
2023-12-11T01:48:33.477Z,53.31
2023-12-11T01:49:33.413Z,51.91
2023-12-11T01:50:33.495Z,52.34
2023-12-11T01:51:33.495Z,52.71
2023-12-11T01:52:33.518Z,53.10
2023-12-11T01:53:33.578Z,53.44
2023-12-11T01:54:33.638Z,55.25
2023-12-11T01:55:33.684Z,54.97
2023-12-11T01:56:33.729Z,52.09
2023-12-11T01:57:33.813Z,53.69
2023-12-11T01:58:33.863Z,54.49
2023-12-11T01:59:33.889Z,55.33
2023-12-11T02:00:34.005Z,53.66
2023-12-11T02:01:34.049Z,56.39
2023-12-11T02:02:34.031Z,56.07
2023-12-11T02:03:34.226Z,54.82
2023-12-11T02:04:34.229Z,51.98
2023-12-11T02:05:34.193Z,55.06
2023-12-11T02:06:34.241Z,52.52
2023-12-11T02:07:34.247Z,55.77
2023-12-11T02:08:34.304Z,55.47
2023-12-11T02:09:34.365Z,55.31
2023-12-11T02:10:34.394Z,54.20
2023-12-11T02:11:34.442Z,54.65
2023-12-11T02:12:34.487Z,54.87
2023-12-11T02:13:34.538Z,54.56
2023-12-11T02:14:34.590Z,54.66
2023-12-11T02:15:34.640Z,52.83
2023-12-11T02:16:34.680Z,55.15
2023-12-11T02:17:34.811Z,55.14
2023-12-11T02:18:34.859Z,55.71
2023-12-11T02:19:34.829Z,53.47
2023-12-11T02:20:34.844Z,54.06
2023-12-11T02:21:34.926Z,56.80
2023-12-11T02:22:34.943Z,55.01
2023-12-11T02:23:34.983Z,55.72
2023-12-11T02:24:35.062Z,56.50
2023-12-11T02:25:35.071Z,53.25
2023-12-11T02:26:35.113Z,56.02
2023-12-11T02:27:35.149Z,53.47
2023-12-11T02:28:35.187Z,53.71
2023-12-11T02:29:35.222Z,54.53
2023-12-11T02:30:35.309Z,54.65
2023-12-11T02:31:35.319Z,53.75
2023-12-11T02:32:35.402Z,56.70
2023-12-11T02:33:35.451Z,53.11
2023-12-11T02:34:35.540Z,55.07
2023-12-11T02:35:35.460Z,54.22
2023-12-11T02:36:35.551Z,56.60
2023-12-11T02:37:35.550Z,51.50
2023-12-11T02:38:35.653Z,54.62
2023-12-11T02:39:35.685Z,55.31
2023-12-11T02:40:35.671Z,54.71
2023-12-11T02:41:35.706Z,54.91
2023-12-11T02:42:35.766Z,54.74
2023-12-11T02:43:35.769Z,58.25
2023-12-11T02:44:35.810Z,55.39
2023-12-11T02:45:35.867Z,53.75
2023-12-11T02:46:35.890Z,54.90
2023-12-11T02:47:35.990Z,54.87
2023-12-11T02:48:36.080Z,55.43
2023-12-11T02:49:36.036Z,53.67
2023-12-11T02:50:36.032Z,56.12
2023-12-11T02:51:36.205Z,53.66
2023-12-11T02:52:36.122Z,54.68
2023-12-11T02:53:36.149Z,54.29
2023-12-11T02:54:36.232Z,52.71
2023-12-11T02:55:36.234Z,53.26
2023-12-11T02:56:36.276Z,50.30
2023-12-11T02:57:36.331Z,54.07
2023-12-11T02:58:36.356Z,55.11
2023-12-11T02:59:36.407Z,51.32
2023-12-11T03:00:36.479Z,53.01
2023-12-11T03:01:36.527Z,54.13
2023-12-11T03:02:36.510Z,55.15
2023-12-11T03:03:36.633Z,54.47
2023-12-11T03:04:36.636Z,52.81
2023-12-11T03:05:36.671Z,54.88
2023-12-11T03:06:36.722Z,52.78
2023-12-11T03:07:36.701Z,55.07
2023-12-11T03:08:36.745Z,53.70
2023-12-11T03:09:36.815Z,55.14
2023-12-11T03:10:36.890Z,54.88
2023-12-11T03:11:36.853Z,52.89
2023-12-11T03:12:36.932Z,55.39
2023-12-11T03:13:36.949Z,52.75
2023-12-11T03:14:36.986Z,56.05
2023-12-11T03:15:37.062Z,52.55
2023-12-11T03:16:37.071Z,55.05
2023-12-11T03:17:37.196Z,53.98
2023-12-11T03:18:37.242Z,52.94
2023-12-11T03:19:37.278Z,51.64
2023-12-11T03:20:37.212Z,53.20
2023-12-11T03:21:37.284Z,51.60
2023-12-11T03:22:37.269Z,53.45
2023-12-11T03:23:37.310Z,51.38
2023-12-11T03:24:37.379Z,53.47
2023-12-11T03:25:37.384Z,53.00
2023-12-11T03:26:37.424Z,52.29
2023-12-11T03:27:37.478Z,55.52
2023-12-11T03:28:37.497Z,54.13
2023-12-11T03:29:37.535Z,52.12
2023-12-11T03:30:37.615Z,54.16
2023-12-11T03:31:37.616Z,53.23
2023-12-11T03:32:37.693Z,56.03
2023-12-11T03:33:37.759Z,53.76
2023-12-11T03:34:37.800Z,52.95
2023-12-11T03:35:37.771Z,54.64
2023-12-11T03:36:37.871Z,56.11
2023-12-11T03:37:37.888Z,56.17
2023-12-11T03:38:37.897Z,55.85
2023-12-11T03:39:37.931Z,55.36
2023-12-11T03:40:37.980Z,54.63
2023-12-11T03:41:38.015Z,54.38
2023-12-11T03:42:38.107Z,53.41
2023-12-11T03:43:38.098Z,54.75
2023-12-11T03:44:38.140Z,52.27
2023-12-11T03:45:38.190Z,53.89
2023-12-11T03:46:38.204Z,54.80
2023-12-11T03:47:38.263Z,53.63
2023-12-11T03:48:38.417Z,53.65
2023-12-11T03:49:38.458Z,55.20
2023-12-11T03:50:38.366Z,54.89
2023-12-11T03:51:38.492Z,54.25
2023-12-11T03:52:38.490Z,51.85
2023-12-11T03:53:38.512Z,56.10
2023-12-11T03:54:38.560Z,55.79
2023-12-11T03:55:38.573Z,54.24
2023-12-11T03:56:38.608Z,54.54
2023-12-11T03:57:38.652Z,55.14
2023-12-11T03:58:38.695Z,56.58
2023-12-11T03:59:38.734Z,55.48
2023-12-11T04:00:38.847Z,55.31
2023-12-11T04:01:38.945Z,53.81
2023-12-11T04:02:38.905Z,54.59
2023-12-11T04:03:38.926Z,53.55
2023-12-11T04:04:39.008Z,53.66
2023-12-11T04:05:39.026Z,55.17
2023-12-11T04:06:39.063Z,56.29
2023-12-11T04:07:39.061Z,52.88
2023-12-11T04:08:39.101Z,55.81
2023-12-11T04:09:39.165Z,54.18
2023-12-11T04:10:39.193Z,54.49
2023-12-11T04:11:39.236Z,53.38
2023-12-11T04:12:39.309Z,55.37
2023-12-11T04:13:39.323Z,54.57
2023-12-11T04:14:39.367Z,52.93
2023-12-11T04:15:39.455Z,55.91
2023-12-11T04:16:39.452Z,54.10
2023-12-11T04:17:39.617Z,54.37
2023-12-11T04:18:39.758Z,53.14
2023-12-11T04:19:39.784Z,54.14
2023-12-11T04:20:39.626Z,52.59
2023-12-11T04:21:39.809Z,55.49
2023-12-11T04:22:39.719Z,54.46
2023-12-11T04:23:39.721Z,55.97
2023-12-11T04:24:39.824Z,55.14
2023-12-11T04:25:39.833Z,53.18
2023-12-11T04:26:39.851Z,54.33
2023-12-11T04:27:40.002Z,56.51
2023-12-11T04:28:39.921Z,54.35
2023-12-11T04:29:39.954Z,53.86
2023-12-11T04:30:40.008Z,53.26
2023-12-11T04:31:40.029Z,55.21
2023-12-11T04:32:40.260Z,55.37
2023-12-11T04:33:40.295Z,53.66
2023-12-11T04:34:40.181Z,55.33
2023-12-11T04:35:40.165Z,53.38
2023-12-11T04:36:40.226Z,53.34
2023-12-11T04:37:40.233Z,57.21
2023-12-11T04:38:40.274Z,53.86
2023-12-11T04:39:40.336Z,55.44
2023-12-11T04:40:40.338Z,53.83
2023-12-11T04:41:47.619Z,50.00
2023-12-11T04:42:47.602Z,50.00
2023-12-11T04:43:47.567Z,50.00
2023-12-11T04:44:47.553Z,50.00
2023-12-11T04:45:47.582Z,50.00
2023-12-11T04:46:47.537Z,52.57
2023-12-11T04:47:47.559Z,50.33
2023-12-11T04:48:47.642Z,50.31
2023-12-11T04:49:47.615Z,51.86
2023-12-11T04:50:47.498Z,51.29
2023-12-11T04:51:47.573Z,50.00
2023-12-11T04:52:47.548Z,55.93
2023-12-11T04:53:47.580Z,54.35
2023-12-11T04:54:47.653Z,53.19
2023-12-11T04:55:47.782Z,52.12
2023-12-11T04:56:47.682Z,53.28
2023-12-11T04:57:47.724Z,54.74
2023-12-11T04:58:47.730Z,52.40
2023-12-11T04:59:47.768Z,53.47
2023-12-11T05:00:47.915Z,54.26
2023-12-11T05:01:47.882Z,53.31
2023-12-11T05:02:47.883Z,54.92
2023-12-11T05:03:47.940Z,54.86
2023-12-11T05:04:47.994Z,54.12
2023-12-11T05:05:48.000Z,53.66
2023-12-11T05:06:48.038Z,52.70
2023-12-11T05:07:48.042Z,52.41
2023-12-11T05:08:48.080Z,54.48
2023-12-11T05:09:48.149Z,53.03
2023-12-11T05:10:48.180Z,54.19
2023-12-11T05:11:48.196Z,51.65
2023-12-11T05:12:48.286Z,52.78
2023-12-11T05:13:48.264Z,51.96
2023-12-11T05:14:48.301Z,53.74
2023-12-11T05:15:48.374Z,51.93
2023-12-11T05:16:48.372Z,54.16
2023-12-11T05:17:48.428Z,53.45
2023-12-11T05:18:48.528Z,53.73
2023-12-11T05:19:48.616Z,50.78
2023-12-11T05:20:48.495Z,52.26
2023-12-11T05:21:48.529Z,52.29
2023-12-11T05:22:48.560Z,52.89
2023-12-11T05:23:48.720Z,52.19
2023-12-11T05:24:48.634Z,53.92
2023-12-11T05:25:48.647Z,52.06
2023-12-11T05:26:48.668Z,53.41
2023-12-11T05:27:48.726Z,50.73
2023-12-11T05:28:48.741Z,54.47
2023-12-11T05:29:48.766Z,52.54
2023-12-11T05:30:48.805Z,56.37
2023-12-11T05:31:48.820Z,53.13
2023-12-11T05:32:48.918Z,53.58
2023-12-11T05:33:49.086Z,52.93
2023-12-11T05:34:48.958Z,53.89
2023-12-11T05:35:48.942Z,54.68
2023-12-11T05:36:48.999Z,53.72
2023-12-11T05:37:48.995Z,53.46
2023-12-11T05:38:49.024Z,53.63
2023-12-11T05:39:57.571Z,56.81
2023-12-11T05:40:50.066Z,56.84
2023-12-11T05:41:49.061Z,53.49
2023-12-11T05:42:49.122Z,54.74
2023-12-11T05:43:49.017Z,52.14
2023-12-11T05:44:49.012Z,55.65
2023-12-11T05:45:49.731Z,54.67
2023-12-11T05:46:48.994Z,54.50
2023-12-11T05:47:49.148Z,54.09
2023-12-11T05:48:49.045Z,54.62
2023-12-11T05:49:49.066Z,54.85
2023-12-11T05:50:48.963Z,53.38
2023-12-11T05:51:48.998Z,54.35
2023-12-11T05:52:48.956Z,54.62
2023-12-11T05:53:49.731Z,53.99
2023-12-11T05:54:49.011Z,55.27
2023-12-11T05:55:48.933Z,54.30
2023-12-11T05:56:48.941Z,55.20
2023-12-11T05:57:49.143Z,54.26
2023-12-11T05:58:48.942Z,50.65
2023-12-11T05:59:48.973Z,52.92
2023-12-11T06:00:49.104Z,56.03
2023-12-11T06:01:49.209Z,53.63
2023-12-11T06:02:49.126Z,54.44
2023-12-11T06:03:49.175Z,52.76
2023-12-11T06:04:49.658Z,53.11
2023-12-11T06:05:49.150Z,52.58
2023-12-11T06:06:49.181Z,54.71
2023-12-11T06:07:49.152Z,52.71
2023-12-11T06:08:49.180Z,53.68
2023-12-11T06:09:49.205Z,55.90
2023-12-11T06:10:49.225Z,52.57
2023-12-11T06:11:49.271Z,53.79
2023-12-11T06:12:49.303Z,54.20
2023-12-11T06:13:49.303Z,54.55
2023-12-11T06:14:49.853Z,54.34
2023-12-11T06:15:49.397Z,54.96
2023-12-11T06:16:49.373Z,54.16
2023-12-11T06:17:49.484Z,53.49
2023-12-11T06:18:49.536Z,54.51
2023-12-11T06:19:49.509Z,57.89
2023-12-11T06:20:49.486Z,57.25
2023-12-11T06:21:49.537Z,59.84
2023-12-11T06:22:49.538Z,61.85
2023-12-11T06:23:49.566Z,60.95
2023-12-11T06:24:49.639Z,60.63
2023-12-11T06:25:49.623Z,60.15
2023-12-11T06:26:49.677Z,58.40
2023-12-11T06:27:51.513Z,57.99
2023-12-11T06:28:49.667Z,58.41
2023-12-11T06:29:49.641Z,59.22
2023-12-11T06:30:49.651Z,58.54
2023-12-11T06:31:49.650Z,58.31
2023-12-11T06:32:49.667Z,57.86
2023-12-11T06:33:49.688Z,58.82
2023-12-11T06:34:50.506Z,59.26
2023-12-11T06:35:50.170Z,61.15
2023-12-11T06:36:49.687Z,61.11
2023-12-11T06:37:52.301Z,63.82
2023-12-11T06:38:51.174Z,64.00
2023-12-11T06:39:49.727Z,64.06
2023-12-11T06:40:49.542Z,65.02
2023-12-11T06:41:49.546Z,66.20
2023-12-11T06:42:49.556Z,71.93
2023-12-11T06:43:49.529Z,74.13
2023-12-11T06:44:49.473Z,75.69
2023-12-11T06:45:49.552Z,80.98
2023-12-11T06:46:49.448Z,84.12
2023-12-11T06:47:49.430Z,85.67
2023-12-11T06:48:49.543Z,85.48
2023-12-11T06:49:49.611Z,90.41
2023-12-11T06:50:49.369Z,92.07
2023-12-11T06:51:49.392Z,92.81
2023-12-11T06:52:49.389Z,96.32
2023-12-11T06:53:49.328Z,95.89
2023-12-11T06:54:49.338Z,98.87
2023-12-11T06:55:49.306Z,100.03
2023-12-11T06:56:49.269Z,101.85
2023-12-11T06:57:49.267Z,104.76
2023-12-11T06:58:49.247Z,105.62
2023-12-11T06:59:49.290Z,107.18
2023-12-11T07:00:49.511Z,114.52
2023-12-11T07:01:49.547Z,118.63
2023-12-11T07:02:49.469Z,120.15
2023-12-11T07:03:49.717Z,123.44
2023-12-11T07:04:49.610Z,126.46
2023-12-11T07:05:49.965Z,126.16
2023-12-11T07:06:49.742Z,128.23
2023-12-11T07:07:49.705Z,131.54
2023-12-11T07:08:49.751Z,131.67
2023-12-11T07:09:49.841Z,132.51
2023-12-11T07:10:49.833Z,134.55
2023-12-11T07:11:49.885Z,135.41
2023-12-11T07:12:51.811Z,135.60
2023-12-11T07:13:50.031Z,136.29
2023-12-11T07:14:49.818Z,138.25
2023-12-11T07:15:49.839Z,140.46
2023-12-11T07:16:49.795Z,145.29
2023-12-11T07:17:49.831Z,144.32
2023-12-11T07:18:49.854Z,145.88
2023-12-11T07:19:49.775Z,148.89
2023-12-11T07:20:49.735Z,149.53
2023-12-11T07:21:50.839Z,150.48
2023-12-11T07:22:49.825Z,153.11
2023-12-11T07:23:49.962Z,153.25
2023-12-11T07:24:49.948Z,150.72
2023-12-11T07:25:51.000Z,150.99
2023-12-11T07:26:49.886Z,152.54
2023-12-11T07:27:50.811Z,155.19
2023-12-11T07:28:49.859Z,160.65
2023-12-11T07:29:49.852Z,166.70
2023-12-11T07:30:49.841Z,171.14
2023-12-11T07:31:49.817Z,173.32
2023-12-11T07:32:49.862Z,174.45
2023-12-11T07:33:49.963Z,180.55
2023-12-11T07:34:49.994Z,183.82
2023-12-11T07:35:49.981Z,182.58
2023-12-11T07:36:50.044Z,186.11
2023-12-11T07:37:50.089Z,190.86
2023-12-11T07:38:50.142Z,193.62
2023-12-11T07:39:50.242Z,194.86
2023-12-11T07:40:50.236Z,195.53
2023-12-11T07:41:50.278Z,196.93
2023-12-11T07:42:50.361Z,196.70
2023-12-11T07:43:50.374Z,197.58
2023-12-11T07:44:50.431Z,195.90
2023-12-11T07:45:50.502Z,195.77
2023-12-11T07:46:50.502Z,200.00
2023-12-11T07:47:50.591Z,199.62
2023-12-11T07:48:50.736Z,197.63
2023-12-11T07:49:50.684Z,198.12
2023-12-11T07:50:51.285Z,200.00
2023-12-11T07:51:51.735Z,199.91
2023-12-11T07:52:50.744Z,200.00
2023-12-11T07:53:51.779Z,197.53
2023-12-11T07:54:50.871Z,198.07
2023-12-11T07:55:51.708Z,198.56
2023-12-11T07:56:50.921Z,198.38
2023-12-11T07:57:51.001Z,198.73
2023-12-11T07:58:51.002Z,198.62
2023-12-11T07:59:51.049Z,199.21
2023-12-11T08:00:51.187Z,198.91
2023-12-11T08:01:51.223Z,198.98
2023-12-11T08:02:51.168Z,198.81
2023-12-11T08:03:51.379Z,199.52
2023-12-11T08:04:51.529Z,199.44
2023-12-11T08:05:51.295Z,198.89
2023-12-11T08:06:51.399Z,199.84
2023-12-11T08:07:51.409Z,197.66
2023-12-11T08:08:51.436Z,199.32
2023-12-11T08:09:54.329Z,199.49
2023-12-11T08:10:51.560Z,199.45
2023-12-11T08:11:51.432Z,198.79
2023-12-11T08:12:51.439Z,199.42
2023-12-11T08:13:52.298Z,198.99
2023-12-11T08:14:51.381Z,198.20
2023-12-11T08:15:51.372Z,198.70
2023-12-11T08:16:51.345Z,197.59
2023-12-11T08:17:51.438Z,198.07
2023-12-11T08:18:51.501Z,197.94
2023-12-11T08:19:51.334Z,197.04
2023-12-11T08:20:53.485Z,197.07
2023-12-11T08:21:51.312Z,198.58
2023-12-11T08:22:51.240Z,199.53
2023-12-11T08:23:51.280Z,190.54
2023-12-11T08:24:51.350Z,170.83
2023-12-11T08:25:51.316Z,161.89
2023-12-11T08:26:51.348Z,152.06
2023-12-11T08:27:51.394Z,149.63
2023-12-11T08:28:51.365Z,141.12
2023-12-11T08:29:51.416Z,130.84
2023-12-11T08:30:51.478Z,125.53
2023-12-11T08:31:51.455Z,121.08
2023-12-11T08:32:51.512Z,118.78
2023-12-11T08:33:51.539Z,115.68
2023-12-11T08:34:51.521Z,115.51
2023-12-11T08:35:51.522Z,115.81
2023-12-11T08:36:51.520Z,115.94
2023-12-11T08:37:51.476Z,116.38
2023-12-11T08:38:51.474Z,118.87
2023-12-11T08:39:51.499Z,118.81
2023-12-11T08:40:51.513Z,118.68
2023-12-11T08:41:51.523Z,118.78
2023-12-11T08:42:51.476Z,119.41
2023-12-11T08:43:51.433Z,120.43
2023-12-11T08:44:51.401Z,120.90
2023-12-11T08:45:51.408Z,122.98
2023-12-11T08:46:51.380Z,125.59
2023-12-11T08:47:51.354Z,125.39
2023-12-11T08:48:51.388Z,128.76
2023-12-11T08:49:51.495Z,129.18
2023-12-11T08:50:51.327Z,129.44
2023-12-11T08:51:51.423Z,131.74
2023-12-11T08:52:51.424Z,130.89
2023-12-11T08:53:51.425Z,132.80
2023-12-11T08:54:51.481Z,133.18
2023-12-11T08:55:51.513Z,136.17
2023-12-11T08:56:51.507Z,136.41
2023-12-11T08:57:52.347Z,137.89
2023-12-11T08:58:51.550Z,138.88
2023-12-11T08:59:51.632Z,139.08
2023-12-11T09:00:52.609Z,139.24
2023-12-11T09:01:51.639Z,139.76
2023-12-11T09:02:52.489Z,139.41
2023-12-11T09:03:51.570Z,140.31
2023-12-11T09:04:51.479Z,142.29
2023-12-11T09:05:52.830Z,144.75
2023-12-11T09:06:51.553Z,149.32
2023-12-11T09:07:52.336Z,148.77
2023-12-11T09:08:51.580Z,150.45
2023-12-11T09:09:51.693Z,151.61
2023-12-11T09:10:51.640Z,151.93
2023-12-11T09:11:51.634Z,149.11
2023-12-11T09:12:51.661Z,151.85
2023-12-11T09:13:51.687Z,150.88
2023-12-11T09:14:52.308Z,150.96
2023-12-11T09:15:51.728Z,150.43
2023-12-11T09:16:51.740Z,152.21
2023-12-11T09:17:51.813Z,153.86
2023-12-11T09:18:51.882Z,157.35
2023-12-11T09:19:55.367Z,160.97
2023-12-11T09:20:51.777Z,161.19
2023-12-11T09:21:51.763Z,161.85
2023-12-11T09:22:52.341Z,163.02
2023-12-11T09:23:51.641Z,164.27
2023-12-11T09:24:51.696Z,167.70
2023-12-11T09:25:51.824Z,167.49
2023-12-11T09:26:52.315Z,169.39
2023-12-11T09:27:51.642Z,170.13
2023-12-11T09:28:52.418Z,171.54
2023-12-11T09:29:51.427Z,175.18
2023-12-11T09:30:51.438Z,172.21
2023-12-11T09:31:51.373Z,154.44
2023-12-11T09:32:52.445Z,145.07
2023-12-11T09:33:51.593Z,137.18
2023-12-11T09:34:51.531Z,126.56
2023-12-11T09:35:51.454Z,114.03
2023-12-11T09:36:51.442Z,104.21
2023-12-11T09:37:53.763Z,94.06
2023-12-11T09:38:51.342Z,82.29
2023-12-11T09:39:51.367Z,78.59
2023-12-11T09:40:51.342Z,72.03
2023-12-11T09:41:53.357Z,70.97
2023-12-11T09:42:51.304Z,68.12
2023-12-11T09:43:52.764Z,67.23
2023-12-11T09:44:51.299Z,68.88
2023-12-11T09:45:51.376Z,68.98
2023-12-11T09:46:51.302Z,69.12
2023-12-11T09:47:59.908Z,70.29
2023-12-11T09:48:52.450Z,70.37
2023-12-11T09:49:51.449Z,71.18
2023-12-11T09:50:51.231Z,72.92
2023-12-11T09:51:51.877Z,76.48
2023-12-11T09:52:51.760Z,80.90
2023-12-11T09:53:51.161Z,83.56
2023-12-11T09:54:51.150Z,83.81
2023-12-11T09:55:51.109Z,86.81
2023-12-11T09:56:51.342Z,88.79
2023-12-11T09:57:51.173Z,90.79
2023-12-11T09:58:51.165Z,92.55
2023-12-11T09:59:51.181Z,93.22
2023-12-11T10:00:51.276Z,96.24
2023-12-11T10:01:51.367Z,98.02
2023-12-11T10:02:51.270Z,100.21
2023-12-11T10:03:51.352Z,101.13
2023-12-11T10:04:51.310Z,101.62
2023-12-11T10:05:51.294Z,104.03
2023-12-11T10:06:51.876Z,107.25
2023-12-11T10:07:51.321Z,108.46
2023-12-11T10:08:51.329Z,108.53
2023-12-11T10:09:51.385Z,113.81
2023-12-11T10:10:52.256Z,117.65
2023-12-11T10:11:51.355Z,121.28
2023-12-11T10:12:51.399Z,122.09
2023-12-11T10:13:51.564Z,122.35
2023-12-11T10:14:51.385Z,124.19
2023-12-11T10:15:51.411Z,125.97
2023-12-11T10:16:51.867Z,126.34
2023-12-11T10:17:52.331Z,125.25
2023-12-11T10:18:51.621Z,128.22
2023-12-11T10:19:51.599Z,130.83
2023-12-11T10:20:51.498Z,130.23
2023-12-11T10:21:51.452Z,129.86
2023-12-11T10:22:51.434Z,131.05
2023-12-11T10:23:51.457Z,130.98
2023-12-11T10:24:52.375Z,137.50
2023-12-11T10:25:52.345Z,139.88
2023-12-11T10:26:51.459Z,146.52
2023-12-11T10:27:51.522Z,152.64
2023-12-11T10:28:51.494Z,153.13
2023-12-11T10:29:51.520Z,151.19
2023-12-11T10:30:51.592Z,149.95
2023-12-11T10:31:51.490Z,151.07
2023-12-11T10:32:51.530Z,155.43
2023-12-11T10:33:51.716Z,155.30
2023-12-11T10:34:51.702Z,155.73
2023-12-11T10:35:52.537Z,155.92
2023-12-11T10:36:51.499Z,156.57
2023-12-11T10:37:51.378Z,157.80
2023-12-11T10:38:51.324Z,159.99
2023-12-11T10:39:51.317Z,163.22
2023-12-11T10:40:51.246Z,164.57
2023-12-11T10:41:52.219Z,164.81
2023-12-11T10:42:51.199Z,165.49
2023-12-11T10:44:07.625Z,167.18
2023-12-11T10:44:54.074Z,164.96
2023-12-11T10:45:52.475Z,165.00
2023-12-11T10:46:51.012Z,166.64
2023-12-11T10:47:51.013Z,169.39
2023-12-11T10:48:51.135Z,173.70
2023-12-11T10:49:51.067Z,179.41
2023-12-11T10:50:50.912Z,180.61
2023-12-11T10:51:50.840Z,182.61
2023-12-11T10:52:50.790Z,182.82
2023-12-11T10:53:50.757Z,183.57
2023-12-11T10:54:50.733Z,184.99
2023-12-11T10:55:50.841Z,187.48
2023-12-11T10:56:50.723Z,189.60
2023-12-11T10:57:50.594Z,192.67
2023-12-11T10:58:50.546Z,193.21
2023-12-11T10:59:50.507Z,192.76
2023-12-11T11:00:50.591Z,194.18
2023-12-11T11:01:50.463Z,195.19
2023-12-11T11:02:50.401Z,196.64
2023-12-11T11:03:50.364Z,197.59
2023-12-11T11:04:50.316Z,198.88
2023-12-11T11:05:50.341Z,198.82
2023-12-11T11:06:50.267Z,199.61
2023-12-11T11:07:50.180Z,199.68
2023-12-11T11:08:50.135Z,199.60
2023-12-11T11:09:50.117Z,199.26
2023-12-11T11:10:50.054Z,199.18
2023-12-11T11:11:50.016Z,199.05
2023-12-11T11:12:51.764Z,198.06
2023-12-11T11:13:49.990Z,197.84
2023-12-11T11:14:50.898Z,197.52
2023-12-11T11:15:50.017Z,196.35
2023-12-11T11:16:49.964Z,196.65
2023-12-11T11:17:50.930Z,195.32
2023-12-11T11:18:50.910Z,194.34
2023-12-11T11:19:50.077Z,194.87
2023-12-11T11:20:49.951Z,195.04
2023-12-11T11:21:49.988Z,194.93
2023-12-11T11:22:50.038Z,194.81
2023-12-11T11:23:49.965Z,195.62
2023-12-11T11:24:50.063Z,195.47
2023-12-11T11:25:50.038Z,195.33
2023-12-11T11:26:51.905Z,195.53
2023-12-11T11:27:50.091Z,197.33
2023-12-11T11:28:50.138Z,197.73
2023-12-11T11:29:50.089Z,197.48
2023-12-11T11:30:50.197Z,199.32
2023-12-11T11:31:50.078Z,198.21
2023-12-11T11:32:50.136Z,198.24
2023-12-11T11:33:51.130Z,199.30
2023-12-11T11:34:50.070Z,199.34
2023-12-11T11:35:50.036Z,199.35
2023-12-11T11:36:50.067Z,199.21
2023-12-11T11:37:50.042Z,199.45
2023-12-11T11:38:50.017Z,199.67
2023-12-11T11:39:50.964Z,199.25
2023-12-11T11:40:50.388Z,199.46
2023-12-11T11:41:50.054Z,200.00
2023-12-11T11:42:49.987Z,198.60
2023-12-11T11:43:49.975Z,200.00
2023-12-11T11:44:49.968Z,199.68
2023-12-11T11:45:50.006Z,198.91
2023-12-11T11:46:49.934Z,199.48
2023-12-11T11:47:49.942Z,200.00
2023-12-11T11:48:49.987Z,199.23
2023-12-11T11:49:49.995Z,198.80
2023-12-11T11:50:50.013Z,199.55
2023-12-11T11:51:49.894Z,199.57
2023-12-11T11:52:49.864Z,199.29
2023-12-11T11:53:49.843Z,198.69
2023-12-11T11:54:49.843Z,199.16
2023-12-11T11:55:49.994Z,199.20
2023-12-11T11:56:49.818Z,199.09
2023-12-11T11:57:49.838Z,199.70
2023-12-11T11:58:49.752Z,199.23
2023-12-11T11:59:49.749Z,199.47
2023-12-11T12:00:49.782Z,198.80
2023-12-11T12:01:49.770Z,198.52
2023-12-11T12:02:49.719Z,199.12
2023-12-11T12:03:49.736Z,198.57
2023-12-11T12:04:49.737Z,198.89
2023-12-11T12:05:49.726Z,198.88
2023-12-11T12:06:49.642Z,198.64
2023-12-11T12:07:49.601Z,199.82
2023-12-11T12:08:49.767Z,198.66
2023-12-11T12:09:49.603Z,199.03
2023-12-11T12:10:49.567Z,197.75
2023-12-11T12:11:49.534Z,197.58
2023-12-11T12:12:49.599Z,198.07
2023-12-11T12:13:49.597Z,197.42
2023-12-11T12:14:49.571Z,196.45
2023-12-11T12:15:49.613Z,195.95
2023-12-11T12:16:49.586Z,195.74
2023-12-11T12:17:49.686Z,194.70
2023-12-11T12:18:49.702Z,194.64
2023-12-11T12:19:49.624Z,193.63
2023-12-11T12:20:50.581Z,193.73
2023-12-11T12:21:49.630Z,193.86
2023-12-11T12:22:49.526Z,193.36
2023-12-11T12:23:49.470Z,192.64
2023-12-11T12:24:49.706Z,192.32
2023-12-11T12:25:49.399Z,190.38
2023-12-11T12:26:49.359Z,191.55
2023-12-11T12:27:49.341Z,190.20
2023-12-11T12:28:49.296Z,189.32
2023-12-11T12:29:49.279Z,191.55
2023-12-11T12:30:49.316Z,189.02
2023-12-11T12:31:49.339Z,190.04
2023-12-11T12:32:49.396Z,190.66
2023-12-11T12:33:50.814Z,190.11
2023-12-11T12:34:49.602Z,188.89
2023-12-11T12:35:49.466Z,187.85
2023-12-11T12:36:49.488Z,188.68
2023-12-11T12:37:49.517Z,188.38
2023-12-11T12:38:49.547Z,187.46
2023-12-11T12:39:49.660Z,184.77
2023-12-11T12:40:49.613Z,185.55
2023-12-11T12:41:50.928Z,186.15
2023-12-11T12:42:49.782Z,184.99